createdAt,value
2023-02-22T00:01:23.052Z,8.70
2023-02-22T00:11:27.436Z,8.76
2023-02-22T00:21:31.104Z,8.67
2023-02-22T00:31:37.991Z,8.67
2023-02-22T00:41:40.573Z,8.54
2023-02-22T00:51:44.388Z,8.31
2023-02-22T01:01:46.822Z,8.33
2023-02-22T01:11:55.165Z,7.86
2023-02-22T01:21:57.943Z,7.99
2023-02-22T01:32:01.981Z,7.87
2023-02-22T01:42:04.525Z,7.83
2023-02-22T01:52:09.756Z,7.78
2023-02-22T02:02:12.409Z,7.67
2023-02-22T02:12:16.979Z,7.64
2023-02-22T02:22:29.701Z,7.64
2023-02-22T02:32:36.616Z,7.59
2023-02-22T02:42:43.173Z,7.60
2023-02-22T02:52:47.727Z,7.45
2023-02-22T03:02:58.684Z,7.40
2023-02-22T03:13:09.309Z,7.42
2023-02-22T03:23:15.424Z,7.32
2023-02-22T03:33:20.929Z,7.38
2023-02-22T03:43:25.980Z,7.34
2023-02-22T03:53:30.470Z,7.32
2023-02-22T04:03:33.098Z,7.00
2023-02-22T04:13:36.858Z,7.00
2023-02-22T04:23:39.449Z,6.92
2023-02-22T04:33:43.341Z,6.73
2023-02-22T04:43:46.055Z,6.56
2023-02-22T04:53:49.839Z,6.46
2023-02-22T05:03:52.437Z,6.50
2023-02-22T05:13:56.476Z,6.31
2023-02-22T05:23:59.088Z,6.43
2023-02-22T05:34:03.203Z,6.57
2023-02-22T05:44:05.785Z,6.60
2023-02-22T05:54:09.619Z,6.56
2023-02-22T06:04:12.013Z,6.63
2023-02-22T06:14:15.762Z,6.45
2023-02-22T06:24:18.140Z,6.41
2023-02-22T06:34:22.846Z,6.53
2023-02-22T06:44:25.317Z,6.67
2023-02-22T06:54:29.078Z,6.68
2023-02-22T07:04:31.635Z,6.67
2023-02-22T07:14:35.457Z,6.76
2023-02-22T07:24:37.871Z,7.17
2023-02-22T07:34:42.091Z,7.26
2023-02-22T07:44:44.830Z,7.39
2023-02-22T07:54:48.665Z,7.37
2023-02-22T08:04:51.064Z,7.43
2023-02-22T08:14:54.793Z,7.59
2023-02-22T08:24:57.222Z,7.83
2023-02-22T08:35:01.294Z,8.22
2023-02-22T08:45:03.770Z,8.32
2023-02-22T08:55:07.975Z,8.64
2023-02-22T09:05:10.583Z,8.93
2023-02-22T09:15:14.402Z,9.22
2023-02-22T09:25:17.796Z,9.48
2023-02-22T09:35:26.950Z,9.72
2023-02-22T09:45:34.965Z,10.24
2023-02-22T09:55:41.162Z,10.71
2023-02-22T10:05:44.838Z,11.33
2023-02-22T10:15:52.442Z,11.88
2023-02-22T10:25:58.096Z,11.70
2023-02-22T10:36:03.267Z,11.76
2023-02-22T10:46:08.136Z,12.21
2023-02-22T10:56:15.812Z,12.51
2023-02-22T11:06:20.334Z,12.88
2023-02-22T11:16:28.100Z,13.36
2023-02-22T11:26:37.621Z,13.54
2023-02-22T11:36:42.051Z,13.55
2023-02-22T11:46:44.739Z,13.64
2023-02-22T11:56:50.054Z,13.53
2023-02-22T12:06:56.946Z,13.55
2023-02-22T12:17:08.403Z,14.14
2023-02-22T12:27:14.614Z,14.88
2023-02-22T12:37:21.176Z,15.37
2023-02-22T12:47:27.499Z,16.16
2023-02-22T12:57:42.560Z,17.19
2023-02-22T13:07:49.503Z,18.50
2023-02-22T13:18:01.301Z,19.36
2023-02-22T13:28:09.401Z,19.40
2023-02-22T13:38:33.779Z,18.54
2023-02-22T13:48:42.327Z,17.85
2023-02-22T13:58:50.801Z,16.71
2023-02-22T14:08:53.323Z,16.38
2023-02-22T14:19:06.351Z,16.59
2023-02-22T14:29:20.406Z,16.37
2023-02-22T14:39:31.708Z,15.91
2023-02-22T14:49:37.647Z,15.56
2023-02-22T14:59:48.405Z,15.62
2023-02-22T15:09:51.007Z,15.52
2023-02-22T15:19:55.263Z,15.42
2023-02-22T15:29:59.290Z,14.82
2023-02-22T15:40:14.375Z,14.69
2023-02-22T15:50:23.570Z,14.47
2023-02-22T16:00:33.828Z,14.42
2023-02-22T16:10:36.977Z,13.98
2023-02-22T16:20:40.874Z,14.02
2023-02-22T16:30:43.376Z,13.74
2023-02-22T16:40:50.401Z,13.75
2023-02-22T16:50:53.721Z,13.58
2023-02-22T17:00:58.262Z,13.44
2023-02-22T17:11:00.839Z,13.16
2023-02-22T17:21:04.868Z,13.11
2023-02-22T17:31:07.538Z,13.01
2023-02-22T17:41:11.368Z,12.94
2023-02-22T17:51:13.948Z,12.83
2023-02-22T18:01:21.780Z,13.31
2023-02-22T18:11:26.214Z,12.70
2023-02-22T18:21:30.199Z,12.48
2023-02-22T18:31:32.821Z,12.44
2023-02-22T18:41:37.139Z,12.32
2023-02-22T18:51:39.949Z,12.16
2023-02-22T19:01:48.850Z,12.18
2023-02-22T19:11:54.539Z,12.12
2023-02-22T19:21:59.891Z,12.12
2023-02-22T19:32:02.870Z,12.09
2023-02-22T19:42:09.509Z,12.07
2023-02-22T19:52:11.916Z,11.99
2023-02-22T20:02:15.850Z,11.99
2023-02-22T20:12:18.978Z,11.89
2023-02-22T20:22:23.036Z,11.86
2023-02-22T20:32:28.427Z,11.78
2023-02-22T20:42:40.552Z,11.68
2023-02-22T20:52:43.051Z,11.57
2023-02-22T21:02:49.952Z,11.45
2023-02-22T21:12:52.437Z,11.45
2023-02-22T21:22:56.400Z,11.35
2023-02-22T21:32:58.946Z,11.30
2023-02-22T21:43:05.624Z,11.28
2023-02-22T21:53:08.564Z,11.24
2023-02-22T22:03:20.328Z,11.28
2023-02-22T22:13:25.411Z,11.32
2023-02-22T22:23:30.394Z,11.27
2023-02-22T22:33:34.873Z,11.19
2023-02-22T22:43:38.756Z,11.20
2023-02-22T22:53:42.500Z,11.20
2023-02-22T23:03:55.318Z,11.13
2023-02-22T23:13:58.364Z,11.14
2023-02-22T23:24:02.680Z,11.15
2023-02-22T23:34:10.880Z,11.18
2023-02-22T23:44:17.452Z,11.08
2023-02-22T23:54:20.943Z,11.07
